Time;durP1;ratioP1;P1;durP2;ratioP2;P2;SDS_P1;SDS_P2;PMS_P1;PMS_P2;Temp;Humidity;BMP_temperature;BMP_pressure;BME280_temperature;BME280_humidity;BME280_pressure;Samples;Min_cycle;Max_cycle;Signal;HPM_P1;HPM_P2
2024/02/17 00:07:32;;;;;;;19.02;9.68;;;;;;;5.22;68.93;100384.28;5651953;23;20038;-96
2024/02/17 00:09:58;;;;;;;17.25;10.25;;;;;;;5.16;69.13;100401.94;4951844;28;20109;-96
2024/02/17 00:12:27;;;;;;;21.30;11.18;;;;;;;5.26;69.09;100390.84;4967259;28;20054;-96
2024/02/17 00:14:53;;;;;;;18.70;9.82;;;;;;;5.16;68.99;100396.59;4984005;28;20029;-96
2024/02/17 00:17:18;;;;;;;15.48;9.52;;;;;;;5.13;69.61;100404.22;4967924;28;20026;-96
2024/02/17 00:19:46;;;;;;;20.45;10.23;;;;;;;4.99;70.11;100390.88;4968138;28;20027;-96
2024/02/17 00:22:13;;;;;;;24.40;11.20;;;;;;;5.02;70.10;100397.66;4967845;28;20030;-96
2024/02/17 00:24:40;;;;;;;21.33;11.43;;;;;;;4.99;70.39;100398.06;4968712;28;20023;-96
2024/02/17 00:27:05;;;;;;;22.48;10.80;;;;;;;4.97;70.16;100406.28;4967774;28;20469;-96
2024/02/17 00:29:34;;;;;;;26.42;11.70;;;;;;;4.98;69.90;100402.59;4966826;28;20031;-96
2024/02/17 00:32:00;;;;;;;22.52;11.38;;;;;;;5.02;70.13;100400.31;4967906;28;20054;-96
2024/02/17 00:34:31;;;;;;;22.38;11.38;;;;;;;5.04;71.34;100407.09;4952085;28;20030;-96
2024/02/17 00:36:56;;;;;;;22.95;11.85;;;;;;;4.99;71.26;100392.72;4984106;28;20038;-96
2024/02/17 00:39:23;;;;;;;20.52;10.55;;;;;;;5.09;71.05;100416.34;4966878;28;20022;-96
2024/02/17 00:41:51;;;;;;;17.80;11.18;;;;;;;5.05;69.76;100416.75;4983928;28;20030;-96
2024/02/17 00:44:21;;;;;;;18.85;10.90;;;;;;;5.03;70.45;100409.97;4984251;28;20073;-96
2024/02/17 00:46:47;;;;;;;24.23;11.00;;;;;;;5.13;70.01;100423.72;4968095;28;20038;-96
2024/02/17 00:49:15;;;;;;;15.65;10.80;;;;;;;4.98;70.57;100423.94;4966720;28;20027;-96
2024/02/17 00:51:47;;;;;;;21.60;10.90;;;;;;;4.89;69.85;100405.66;4983431;28;20112;-96
2024/02/17 00:54:13;;;;;;;24.73;10.15;;;;;;;4.86;70.55;100390.91;4968507;28;20026;-96
2024/02/17 00:56:38;;;;;;;21.50;10.63;;;;;;;4.97;70.34;100408.94;4966175;28;20070;-96
2024/02/17 00:59:23;;;;;;;17.80;10.73;;;;;;;4.81;70.46;100394.16;4951421;28;20023;-96
2024/02/17 01:01:58;;;;;;;18.27;9.70;;;;;;;4.88;70.22;100393.34;4973678;28;20029;-96
2024/02/17 01:04:29;;;;;;;18.35;10.25;;;;;;;4.92;69.83;100402.56;4950992;28;20042;-96
2024/02/17 01:06:55;;;;;;;16.30;9.95;;;;;;;4.85;69.85;100398.06;4968040;28;20070;-96
2024/02/17 01:09:21;;;;;;;21.77;10.30;;;;;;;4.74;69.53;100404.03;4951518;28;20508;-96
2024/02/17 01:11:47;;;;;;;18.00;9.73;;;;;;;4.73;69.50;100414.88;4967630;28;20093;-96
2024/02/17 01:14:15;;;;;;;17.70;9.27;;;;;;;4.60;69.33;100405.03;4967844;28;20491;-96
2024/02/17 01:16:43;;;;;;;23.05;10.45;;;;;;;4.45;70.36;100403.38;4967349;28;20026;-96
2024/02/17 01:19:09;;;;;;;16.25;9.95;;;;;;;4.52;69.93;100397.22;4983620;28;20026;-96
2024/02/17 01:21:35;;;;;;;15.82;9.68;;;;;;;4.51;70.37;100404.41;4981701;28;20038;-96
2024/02/17 01:24:01;;;;;;;19.58;10.45;;;;;;;4.49;70.36;100416.31;4967060;28;20559;-96
2024/02/17 01:26:30;;;;;;;20.23;10.63;;;;;;;4.37;70.59;100403.56;4965861;28;20105;-96
2024/02/17 01:29:01;;;;;;;17.60;9.52;;;;;;;4.18;70.42;100389.16;4965982;28;20045;-96
2024/02/17 01:31:28;;;;;;;16.42;9.63;;;;;;;4.22;70.98;100401.06;4967498;28;20036;-96
2024/02/17 01:33:58;;;;;;;15.70;9.45;;;;;;;4.15;70.86;100402.06;4983239;28;20033;-96
2024/02/17 01:36:33;;;;;;;17.38;10.43;;;;;;;4.13;70.61;100399.63;4968330;28;20121;-96
2024/02/17 01:39:01;;;;;;;14.65;9.23;;;;;;;4.19;70.58;100414.81;4973460;28;20030;-96
2024/02/17 01:41:31;;;;;;;18.67;9.70;;;;;;;4.03;71.26;100405.31;4971130;28;20026;-96
2024/02/17 01:44:06;;;;;;;16.38;9.25;;;;;;;4.00;71.80;100420.88;4969958;28;20022;-96
2024/02/17 01:46:33;;;;;;;17.70;9.38;;;;;;;3.94;71.31;100416.34;4980435;28;20038;-96
2024/02/17 01:48:59;;;;;;;26.33;10.30;;;;;;;3.78;72.44;100402.34;4985432;28;20408;-96
2024/02/17 01:51:25;;;;;;;19.88;9.75;;;;;;;3.90;72.25;100415.94;4966587;28;20026;-95
2024/02/17 01:53:53;;;;;;;19.75;9.90;;;;;;;3.83;71.91;100423.88;4966854;28;20034;-95
2024/02/17 01:59:12;;;;;;;16.25;9.40;;;;;;;3.76;71.86;100416.91;4986618;28;20522;-96
2024/02/17 02:01:43;;;;;;;22.60;10.05;;;;;;;3.57;72.41;100413.09;4970022;28;20081;-96
2024/02/17 02:04:11;;;;;;;17.30;9.63;;;;;;;3.57;72.59;100415.75;4971107;28;20022;-96
2024/02/17 02:06:40;;;;;;;16.67;10.10;;;;;;;3.46;72.57;100403.00;4969479;28;20022;-96
2024/02/17 02:09:06;;;;;;;20.58;9.52;;;;;;;3.53;72.63;100415.34;4969237;28;20033;-96
2024/02/17 02:11:32;;;;;;;18.27;9.45;;;;;;;3.47;72.09;100410.00;4968830;28;20038;-96
2024/02/17 02:14:27;;;;;;;19.73;9.20;;;;;;;3.20;72.67;100405.31;4969280;28;20407;-96
2024/02/17 02:16:54;;;;;;;12.98;8.50;;;;;;;3.37;72.11;100413.81;4976831;28;20040;-96
2024/02/17 02:19:20;;;;;;;16.85;9.02;;;;;;;3.44;72.19;100414.69;4984766;28;20018;-96
2024/02/17 02:21:46;;;;;;;15.55;8.98;;;;;;;3.47;72.26;100420.66;4969003;28;20057;-96
2024/02/17 02:24:11;;;;;;;15.25;8.73;;;;;;;3.49;71.31;100415.94;4968625;28;20022;-96
2024/02/17 02:26:37;;;;;;;15.60;9.40;;;;;;;3.32;72.18;100408.25;4969040;28;20064;-96
2024/02/17 03:14:54;;;;;;;15.13;7.63;;;;;;;3.49;71.15;100438.06;4964379;28;20051;-96
2024/02/17 03:25:19;;;;;;;18.52;9.35;;;;;;;3.59;71.42;100427.03;5229201;23;20085;-96
2024/02/17 03:27:55;;;;;;;14.27;8.45;;;;;;;3.73;70.69;100428.75;5003982;28;20062;-96
2024/02/17 03:30:26;;;;;;;14.75;9.30;;;;;;;3.71;70.26;100424.66;4975722;28;20030;-96
2024/02/17 03:32:52;;;;;;;15.50;8.38;;;;;;;3.71;70.63;100435.31;4980777;28;20038;-96
2024/02/17 03:35:17;;;;;;;13.20;8.13;;;;;;;3.71;70.47;100428.13;4980312;28;20038;-96
2024/02/17 03:37:43;;;;;;;13.73;8.45;;;;;;;3.71;70.48;100428.13;4965669;28;20030;-96
2024/02/17 03:40:09;;;;;;;17.05;9.30;;;;;;;3.76;70.41;100440.88;4967824;28;20037;-95
2024/02/17 03:42:35;;;;;;;14.50;9.23;;;;;;;3.83;70.56;100465.69;4969053;28;20201;-96
2024/02/17 03:45:06;;;;;;;17.23;8.90;;;;;;;3.74;70.71;100443.72;4990246;28;20037;-96
2024/02/17 03:47:35;;;;;;;16.10;8.60;;;;;;;3.67;70.31;100432.19;4984128;28;20472;-96
2024/02/17 03:50:01;;;;;;;15.98;8.85;;;;;;;3.76;70.46;100435.53;4968129;28;20269;-96
2024/02/17 03:52:29;;;;;;;17.20;9.02;;;;;;;3.85;70.29;100468.97;4968682;28;20029;-96
2024/02/17 03:55:05;;;;;;;12.05;7.95;;;;;;;3.75;70.70;100440.03;4989371;28;20053;-96
2024/02/17 03:57:31;;;;;;;12.15;7.85;;;;;;;3.83;70.01;100431.88;4991336;28;20042;-95
2024/02/17 03:59:59;;;;;;;15.43;8.95;;;;;;;3.80;70.24;100440.28;4986658;28;20042;-96
2024/02/17 04:02:25;;;;;;;16.65;9.38;;;;;;;3.71;70.69;100448.63;4968697;28;20037;-96
2024/02/17 04:04:54;;;;;;;16.88;8.65;;;;;;;3.88;70.39;100460.63;4967585;28;20124;-96
2024/02/17 04:07:20;;;;;;;18.45;8.98;;;;;;;3.97;70.55;100466.59;4983196;28;20031;-96
2024/02/17 04:09:48;;;;;;;16.83;8.18;;;;;;;3.75;70.62;100448.03;4968209;28;20038;-96
2024/02/17 04:12:17;;;;;;;15.27;8.82;;;;;;;3.73;70.46;100455.38;4968434;28;20045;-96
2024/02/17 04:14:43;;;;;;;18.02;10.43;;;;;;;3.76;70.02;100443.53;4968568;28;20033;-96
2024/02/17 04:17:09;;;;;;;16.10;8.85;;;;;;;3.84;70.81;100465.50;4966348;28;20030;-96
2024/02/17 04:19:35;;;;;;;17.02;9.55;;;;;;;3.76;70.47;100440.88;4983305;28;20121;-96
2024/02/17 04:22:00;;;;;;;17.55;9.93;;;;;;;3.83;70.66;100453.19;4967991;28;20113;-96
2024/02/17 04:24:26;;;;;;;20.50;10.10;;;;;;;3.82;70.38;100448.06;4950855;28;20054;-96
2024/02/17 04:26:52;;;;;;;19.50;9.75;;;;;;;3.84;70.41;100451.38;4966155;28;20096;-96
2024/02/17 04:29:19;;;;;;;20.63;10.50;;;;;;;3.81;70.70;100454.41;4967508;28;20031;-96
2024/02/17 04:31:45;;;;;;;16.55;9.60;;;;;;;3.98;70.38;100473.53;4967102;28;20134;-96
2024/02/17 04:34:11;;;;;;;16.15;9.80;;;;;;;3.83;70.31;100439.88;4967044;28;20492;-96
2024/02/17 04:36:37;;;;;;;17.42;10.05;;;;;;;4.04;70.49;100470.91;4966897;28;20026;-96
2024/02/17 04:39:03;;;;;;;13.77;8.73;;;;;;;3.88;70.51;100441.13;4967820;28;20030;-96
2024/02/17 04:41:29;;;;;;;16.77;9.77;;;;;;;3.89;69.82;100440.94;4967551;28;20030;-96
2024/02/17 04:43:55;;;;;;;18.40;10.10;;;;;;;3.89;70.21;100448.09;4951166;28;20125;-96
2024/02/17 04:46:23;;;;;;;17.80;9.50;;;;;;;4.09;69.85;100466.81;4964644;28;20125;-96
2024/02/17 04:52:41;;;;;;;16.48;9.50;;;;;;;3.79;70.89;100445.78;4948024;28;20053;-96
2024/02/17 04:55:07;;;;;;;15.45;8.85;;;;;;;3.88;70.30;100452.63;4995551;28;20038;-96
2024/02/17 04:57:57;;;;;;;15.27;8.65;;;;;;;3.94;70.55;100450.97;4969233;28;20027;-96
2024/02/17 05:00:32;;;;;;;14.77;8.82;;;;;;;3.83;70.41;100445.19;4988289;28;20038;-96
2024/02/17 05:02:59;;;;;;;19.52;8.38;;;;;;;3.79;70.90;100446.59;5006872;28;20069;-96
2024/02/17 05:05:30;;;;;;;15.60;9.55;;;;;;;3.77;70.92;100448.66;4988035;28;20475;-96
2024/02/17 05:08:01;;;;;;;17.52;9.20;;;;;;;4.00;70.37;100474.16;4990529;28;20595;-96
2024/02/17 05:10:28;;;;;;;15.50;8.75;;;;;;;3.94;70.63;100480.28;4959168;28;20057;-96
2024/02/17 05:12:59;;;;;;;20.92;10.13;;;;;;;3.84;71.17;100454.03;4991133;28;20034;-96
2024/02/17 05:15:28;;;;;;;19.20;10.35;;;;;;;3.85;70.67;100453.00;4991740;28;20026;-96
2024/02/17 05:17:54;;;;;;;13.02;9.27;;;;;;;3.83;70.69;100461.19;4974048;28;20030;-96
2024/02/17 05:20:20;;;;;;;16.38;9.77;;;;;;;3.98;70.87;100465.56;4976737;28;20038;-96
2024/02/17 05:22:46;;;;;;;13.85;8.48;;;;;;;3.97;70.54;100471.91;4968023;28;20030;-96
2024/02/17 05:25:17;;;;;;;17.20;9.05;;;;;;;3.82;70.25;100459.53;5000633;28;20054;-96
2024/02/17 05:28:28;;;;;;;16.38;9.43;;;;;;;3.84;69.09;100454.84;5013071;28;20082;-95
2024/02/17 05:31:16;;;;;;;;;;;;;;;;;;;;;
2024/02/17 05:33:53;;;;;;;18.48;9.60;;;;;;;3.93;69.13;100466.16;4983173;28;20051;-96
2024/02/17 05:36:28;;;;;;;19.67;8.95;;;;;;;4.00;69.10;100474.16;4966936;28;20011;-96
2024/02/17 05:39:16;;;;;;;16.55;9.07;;;;;;;4.15;69.16;100500.69;4974468;28;20026;-96
2024/02/17 05:59:13;;;;;;;20.45;8.98;;;;;;;4.02;69.75;100496.13;4960527;28;20051;-96
2024/02/17 06:01:40;;;;;;;18.77;9.60;;;;;;;4.13;69.61;100500.91;4936376;29;20039;-96
2024/02/17 06:04:11;;;;;;;16.85;10.13;;;;;;;4.16;69.36;100505.81;4921015;29;20074;-96
2024/02/17 07:50:51;;;;;;;34.53;15.43;;;;;;;5.64;67.84;100542.41;4998056;28;20061;-96
2024/02/17 07:53:17;;;;;;;29.83;13.40;;;;;;;5.86;67.28;100548.38;4956320;28;20045;-96
2024/02/17 07:55:50;;;;;;;31.20;15.25;;;;;;;5.95;67.08;100559.69;4955723;28;20018;-96
2024/02/17 07:58:17;;;;;;;33.60;15.82;;;;;;;5.98;66.54;100549.41;4950409;28;20113;-96
2024/02/17 08:00:42;;;;;;;35.03;16.25;;;;;;;6.11;66.11;100556.56;4953198;28;20019;-96
2024/02/17 08:03:08;;;;;;;26.98;16.20;;;;;;;6.16;66.10;100547.91;4952218;28;20114;-96
2024/02/17 08:05:34;;;;;;;35.80;18.52;;;;;;;6.34;65.61;100560.63;4953738;28;20597;-96
2024/02/17 08:07:59;;;;;;;33.58;16.77;;;;;;;6.32;65.54;100565.34;4954750;28;20093;-94
2024/02/17 08:14:00;;;;;;;32.50;14.80;;;;;;;6.24;65.10;100561.84;5007660;23;20138;-96
2024/02/17 08:21:36;;;;;;;29.52;15.40;;;;;;;6.49;64.65;100553.13;5038655;23;20069;-96
2024/02/17 08:24:07;;;;;;;39.30;17.10;;;;;;;6.46;65.21;100564.28;4971908;28;20038;-96
2024/02/17 08:26:40;;;;;;;27.08;15.70;;;;;;;6.60;65.07;100586.44;4959120;28;20034;-96
2024/02/17 08:29:10;;;;;;;29.48;15.98;;;;;;;6.68;64.48;100568.31;4972511;28;20034;-95
2024/02/17 08:31:47;;;;;;;;;;;;;;;;;;;;;
2024/02/17 08:37:44;;;;;;;33.38;15.05;;;;;;;6.90;63.99;100578.69;4928136;29;20055;-96
2024/02/17 08:40:25;;;;;;;28.55;14.35;;;;;;;6.78;63.93;100573.16;4985145;23;20027;-96
2024/02/17 08:42:53;;;;;;;38.60;14.98;;;;;;;6.92;64.31;100595.34;4955480;28;20098;-96
2024/02/17 08:45:26;;;;;;;36.70;17.30;;;;;;;6.68;64.38;100575.47;4953963;28;20045;-96
2024/02/17 08:51:20;;;;;;;30.20;14.88;;;;;;;6.82;64.52;100579.75;4950234;29;20042;-96
2024/02/17 08:54:04;;;;;;;34.47;15.50;;;;;;;6.81;64.64;100582.66;4916405;29;20063;-96
2024/02/17 08:56:30;;;;;;;34.17;15.32;;;;;;;6.97;64.53;100608.94;4905083;29;20040;-96
2024/02/17 08:59:06;;;;;;;27.65;13.95;;;;;;;7.07;64.41;100619.16;4919059;29;20067;-96
2024/02/17 09:01:59;;;;;;;29.05;13.65;;;;;;;6.91;64.12;100588.38;4905372;29;20047;-96
2024/02/17 09:41:56;;;;;;;23.90;10.98;;;;;;;6.93;63.61;100598.84;4980814;28;20043;-96
2024/02/17 09:44:23;;;;;;;28.85;12.85;;;;;;;7.05;63.04;100600.63;4967004;28;20039;-96
2024/02/17 09:46:49;;;;;;;23.27;10.80;;;;;;;7.06;62.73;100596.94;4960152;28;20022;-96
2024/02/17 09:49:22;;;;;;;28.15;11.52;;;;;;;7.07;62.62;100597.75;4953022;28;20045;-96
2024/02/17 09:51:49;;;;;;;34.80;14.23;;;;;;;7.15;63.09;100618.91;4968448;28;20445;-96
2024/02/17 09:54:16;;;;;;;26.60;11.55;;;;;;;7.04;62.78;100590.16;4934134;28;20030;-96
2024/02/17 09:57:39;;;;;;;;;;;;;;;;;;;;;
2024/02/17 11:08:27;;;;;;;31.50;14.25;;;;;;;7.40;61.05;100533.22;5003190;28;20077;-96
2024/02/17 11:10:55;;;;;;;28.30;13.60;;;;;;;7.37;62.15;100530.97;4952744;28;20039;-96
2024/02/17 11:13:26;;;;;;;28.45;14.52;;;;;;;7.65;60.71;100543.91;4948534;28;20038;-96
2024/02/17 11:16:07;;;;;;;26.95;13.45;;;;;;;7.95;59.94;100559.34;4949142;28;20041;-95
2024/02/17 11:18:36;;;;;;;28.60;11.85;;;;;;;7.81;59.89;100547.09;4966178;28;20092;-96
2024/02/17 11:21:06;;;;;;;24.27;12.13;;;;;;;8.04;59.60;100541.91;4948890;28;20030;-96
2024/02/17 11:23:41;;;;;;;26.92;11.88;;;;;;;8.19;59.19;100529.97;4953248;28;20034;-96
2024/02/17 11:26:20;;;;;;;25.85;12.27;;;;;;;8.24;58.85;100535.50;4951983;28;20058;-96
2024/02/17 13:08:24;;;;;;;19.05;10.25;;;;;;;8.26;58.54;100523.50;5005301;28;20050;-96
2024/02/17 13:10:50;;;;;;;24.27;11.40;;;;;;;8.35;58.77;100531.25;4969077;28;20033;-96
2024/02/17 13:13:17;;;;;;;23.17;10.93;;;;;;;8.19;58.83;100530.78;4968720;28;20506;-96
2024/02/17 13:15:48;;;;;;;18.58;10.27;;;;;;;8.05;59.22;100522.09;4967834;28;20073;-95
2024/02/17 13:18:13;;;;;;;20.50;10.40;;;;;;;8.14;58.92;100516.44;4984794;28;20037;-96
2024/02/17 13:20:45;;;;;;;18.25;9.80;;;;;;;8.39;58.46;100535.13;4983967;28;20026;-96
2024/02/17 13:23:10;;;;;;;16.95;9.70;;;;;;;8.25;58.98;100537.13;4969386;28;20028;-96
2024/02/17 13:25:36;;;;;;;21.30;10.70;;;;;;;8.14;58.64;100530.66;4967216;28;20030;-95
2024/02/17 13:28:02;;;;;;;18.63;9.13;;;;;;;8.10;59.08;100534.81;4969011;28;20407;-96
2024/02/17 13:30:30;;;;;;;23.50;9.45;;;;;;;7.95;59.41;100519.09;4969807;28;20018;-96
2024/02/17 13:32:58;;;;;;;21.70;10.65;;;;;;;7.98;58.87;100507.09;4985950;28;20026;-96
2024/02/17 13:35:25;;;;;;;20.17;10.38;;;;;;;7.88;59.18;100507.63;4969181;28;20024;-96
2024/02/17 13:37:51;;;;;;;28.25;10.95;;;;;;;7.90;59.02;100500.97;4969695;28;20053;-96
2024/02/17 13:40:23;;;;;;;20.15;9.93;;;;;;;7.95;59.21;100502.16;4971054;28;20022;-96
2024/02/17 13:42:49;;;;;;;20.67;9.93;;;;;;;8.00;58.84;100505.03;4971140;28;20036;-96
2024/02/17 13:45:18;;;;;;;18.60;10.02;;;;;;;7.94;59.48;100497.88;4970194;28;20041;-96
2024/02/17 13:47:46;;;;;;;18.20;10.75;;;;;;;7.98;59.52;100496.38;4983530;28;20026;-96
2024/02/17 13:50:16;;;;;;;15.98;9.25;;;;;;;7.92;59.06;100490.03;4969269;28;20041;-95
2024/02/17 13:52:42;;;;;;;18.35;9.80;;;;;;;8.02;58.84;100503.75;4983981;28;20036;-95
2024/02/17 13:55:12;;;;;;;18.17;9.05;;;;;;;7.91;59.43;100499.13;4968988;28;20407;-96
2024/02/17 13:57:48;;;;;;;18.02;10.25;;;;;;;7.88;59.24;100478.13;4969764;28;20026;-96
2024/02/17 14:00:16;;;;;;;20.83;9.77;;;;;;;8.01;59.64;100504.81;4946414;28;20039;-96
2024/02/17 14:02:42;;;;;;;21.95;10.70;;;;;;;8.03;59.65;100504.56;4945143;28;20121;-96
2024/02/17 14:05:07;;;;;;;18.98;10.23;;;;;;;7.93;59.34;100489.00;4945207;28;20058;-96
2024/02/17 14:07:33;;;;;;;20.27;9.95;;;;;;;8.08;59.20;100515.47;4945282;28;20074;-96
2024/02/17 14:10:06;;;;;;;17.15;10.52;;;;;;;8.06;59.31;100509.50;4944123;28;20042;-96
2024/02/17 14:12:35;;;;;;;19.40;9.90;;;;;;;7.92;59.44;100513.34;4946956;28;20035;-96
2024/02/17 14:15:06;;;;;;;18.60;9.45;;;;;;;7.93;59.24;100501.56;4946595;28;20058;-96
2024/02/17 14:17:32;;;;;;;20.63;9.93;;;;;;;8.11;59.24;100523.03;4945896;28;20114;-96
2024/02/17 14:19:58;;;;;;;19.38;9.90;;;;;;;8.06;59.08;100504.13;4946769;28;20030;-96
2024/02/17 14:22:26;;;;;;;18.73;9.98;;;;;;;7.90;59.08;100497.50;4946067;28;20031;-96
2024/02/17 14:24:54;;;;;;;17.45;10.35;;;;;;;7.99;59.07;100500.69;4960170;28;20504;-96
2024/02/17 14:27:19;;;;;;;17.50;9.90;;;;;;;8.08;58.89;100505.53;4968713;28;20029;-96
2024/02/17 14:29:48;;;;;;;16.92;9.13;;;;;;;7.96;58.42;100499.28;4967827;28;20017;-96
2024/02/17 14:32:14;;;;;;;16.75;9.07;;;;;;;8.10;58.20;100503.44;5075145;23;20131;-96
2024/02/17 14:34:42;;;;;;;16.90;8.65;;;;;;;8.08;58.29;100494.81;4911304;29;20031;-96
2024/02/17 14:37:10;;;;;;;18.27;9.38;;;;;;;8.03;58.62;100491.16;4913167;29;20027;-96
2024/02/17 14:39:37;;;;;;;17.23;9.13;;;;;;;8.07;58.60;100506.59;4914038;29;20063;-95
2024/02/17 14:42:06;;;;;;;14.80;8.32;;;;;;;7.97;58.60;100484.84;4911729;29;20118;-96
2024/02/17 14:44:34;;;;;;;17.20;9.25;;;;;;;7.89;58.78;100490.50;4913792;29;20126;-96
2024/02/17 14:47:01;;;;;;;16.95;9.25;;;;;;;8.00;58.43;100492.44;4911921;29;20067;-96
2024/02/17 14:52:26;;;;;;;17.65;8.75;;;;;;;7.88;59.15;100495.03;4942858;28;20063;-96
2024/02/17 14:54:52;;;;;;;17.15;8.75;;;;;;;7.84;59.35;100493.00;4925815;29;20035;-96
2024/02/17 14:57:19;;;;;;;16.27;8.82;;;;;;;7.97;58.87;100510.81;4910780;29;20038;-96
2024/02/17 14:59:45;;;;;;;16.27;9.07;;;;;;;7.91;59.31;100509.88;4925713;29;20059;-96
2024/02/17 15:02:15;;;;;;;16.25;8.80;;;;;;;8.00;58.93;100513.06;4925334;29;20036;-96
2024/02/17 15:04:40;;;;;;;15.65;8.88;;;;;;;7.80;59.38;100505.22;4957164;29;20030;-96
2024/02/17 15:07:08;;;;;;;14.93;9.05;;;;;;;7.74;59.58;100504.28;4909448;29;20489;-96
2024/02/17 15:09:36;;;;;;;22.92;8.50;;;;;;;7.58;60.06;100486.88;4925049;29;20114;-96
2024/02/17 15:12:02;;;;;;;17.67;9.15;;;;;;;7.63;60.36;100507.66;4926450;29;20090;-96
2024/02/17 15:14:30;;;;;;;20.05;10.82;;;;;;;7.70;60.35;100513.78;4911203;29;20027;-96
2024/02/17 15:16:58;;;;;;;17.38;9.57;;;;;;;7.57;60.37;100498.63;4941507;29;20466;-96
2024/02/17 15:19:25;;;;;;;18.15;9.27;;;;;;;7.53;60.35;100504.66;4925836;29;20401;-96
2024/02/17 15:21:51;;;;;;;16.63;10.27;;;;;;;7.44;60.86;100512.97;4909035;29;20030;-96
2024/02/17 15:24:16;;;;;;;16.40;9.10;;;;;;;7.41;60.42;100513.44;4925118;29;20031;-96
2024/02/17 15:26:42;;;;;;;21.20;9.80;;;;;;;7.42;60.96;100531.13;4909562;29;20059;-96
2024/02/17 15:29:09;;;;;;;19.80;10.32;;;;;;;7.28;61.32;100522.41;4910745;29;20108;-96
2024/02/17 15:31:37;;;;;;;18.27;9.52;;;;;;;7.13;61.19;100519.22;4940728;29;20026;-96
2024/02/17 16:21:23;;;;;;;20.90;11.82;;;;;;;6.07;65.51;100539.28;4987587;28;20115;-96
2024/02/17 16:24:15;;;;;;;26.90;12.43;;;;;;;6.10;65.26;100546.06;4960382;28;20067;-96
2024/02/17 16:27:20;;;;;;;;;;;;;;;;;;;;;
2024/02/17 16:29:45;;;;;;;23.77;12.85;;;;;;;6.06;65.23;100553.72;4955089;29;20125;-96
2024/02/17 16:32:11;;;;;;;22.05;11.85;;;;;;;6.00;65.18;100544.66;4944763;29;20502;-96
2024/02/17 16:34:37;;;;;;;21.38;11.60;;;;;;;6.13;65.27;100557.19;4926455;29;20497;-96
2024/02/17 16:37:03;;;;;;;25.23;13.15;;;;;;;6.01;65.34;100554.31;4927123;29;20121;-96
2024/02/17 16:39:34;;;;;;;22.58;11.63;;;;;;;6.11;65.67;100567.25;4927997;29;20042;-96
2024/02/17 16:41:59;;;;;;;21.83;10.90;;;;;;;5.93;65.66;100554.50;4943125;29;20031;-96
2024/02/17 16:44:32;;;;;;;20.33;12.20;;;;;;;5.88;65.61;100555.13;4944191;29;20035;-96
2024/02/17 16:46:58;;;;;;;22.67;12.88;;;;;;;5.84;66.27;100556.56;4926811;29;20027;-95
2024/02/17 16:49:24;;;;;;;23.77;13.43;;;;;;;5.98;66.26;100573.47;4926267;29;20081;-96
2024/02/17 16:51:55;;;;;;;27.23;13.32;;;;;;;5.82;66.20;100555.16;4944071;29;20094;-96
2024/02/17 16:54:28;;;;;;;31.03;14.37;;;;;;;5.96;65.81;100580.88;4944044;29;20039;-96
2024/02/17 16:56:57;;;;;;;23.65;14.55;;;;;;;5.82;66.14;100568.50;4942371;29;20031;-96
2024/02/17 16:59:25;;;;;;;27.27;17.08;;;;;;;5.72;66.26;100558.25;4928695;28;20106;-96
2024/02/17 17:01:58;;;;;;;21.35;13.15;;;;;;;5.85;66.04;100573.44;4946776;28;20023;-96
2024/02/17 17:04:34;;;;;;;24.55;13.20;;;;;;;5.64;66.15;100553.09;4949303;28;20023;-96
2024/02/17 17:07:07;;;;;;;25.23;14.18;;;;;;;5.74;66.35;100563.38;4936438;28;20501;-96
2024/02/17 17:09:37;;;;;;;30.17;13.80;;;;;;;5.57;66.97;100546.97;4936814;28;20022;-95
2024/02/17 17:12:06;;;;;;;31.08;14.60;;;;;;;5.61;66.98;100561.56;4934596;28;20022;-96
2024/02/17 17:14:35;;;;;;;27.80;16.00;;;;;;;5.54;66.87;100556.22;4932273;28;20027;-96
2024/02/17 17:17:17;;;;;;;30.13;15.40;;;;;;;5.46;67.32;100556.41;4932890;28;20026;-96
2024/02/17 17:19:43;;;;;;;39.80;16.75;;;;;;;5.36;67.53;100551.47;4949981;28;20046;-96
2024/02/17 17:22:09;;;;;;;31.08;15.73;;;;;;;5.40;67.44;100552.72;4933768;28;20109;-96
2024/02/17 17:25:00;;;;;;;;;;;;;;;;;;;;;
2024/02/17 17:27:26;;;;;;;34.13;17.02;;;;;;;5.45;67.49;100554.75;4965470;28;20098;-96
2024/02/17 17:29:52;;;;;;;32.58;17.52;;;;;;;5.42;67.79;100549.84;4928497;28;20472;-95
2024/02/17 17:32:20;;;;;;;48.80;21.42;;;;;;;5.40;67.68;100555.38;4928910;28;20086;-96
2024/02/17 17:34:45;;;;;;;67.05;27.38;;;;;;;5.51;67.65;100575.31;4930429;28;20429;-96
2024/02/17 17:37:11;;;;;;;47.45;21.35;;;;;;;5.41;68.17;100565.03;4930335;28;20121;-96
2024/02/17 17:39:37;;;;;;;32.35;14.23;;;;;;;5.20;67.75;100543.88;4929751;28;20023;-96
2024/02/17 17:42:06;;;;;;;24.50;13.43;;;;;;;5.11;68.23;100558.44;4929005;28;20146;-95
2024/02/17 17:44:31;;;;;;;23.27;13.32;;;;;;;5.00;68.66;100554.50;4930639;28;20046;-95
2024/02/17 17:46:59;;;;;;;21.38;11.13;;;;;;;4.92;68.20;100534.19;4930049;28;20031;-96
2024/02/17 17:49:25;;;;;;;30.58;14.20;;;;;;;5.07;68.05;100566.03;4930038;28;20058;-96
2024/02/17 17:51:50;;;;;;;33.13;17.10;;;;;;;4.85;68.52;100542.16;4927837;28;20026;-96
2024/02/17 17:54:21;;;;;;;25.95;15.05;;;;;;;4.85;68.39;100523.47;4927482;28;20035;-95
2024/02/17 17:56:49;;;;;;;31.92;16.13;;;;;;;4.99;68.43;100561.69;4928701;28;20030;-96
2024/02/17 17:59:15;;;;;;;25.65;11.45;;;;;;;4.79;68.77;100534.13;4928692;28;20027;-96
2024/02/17 18:01:42;;;;;;;24.85;12.77;;;;;;;4.83;68.89;100543.38;4928452;28;20018;-95
2024/02/17 18:04:07;;;;;;;52.25;24.92;;;;;;;4.79;69.28;100540.31;4929885;28;20027;-96
2024/02/17 18:06:34;;;;;;;27.10;13.90;;;;;;;4.74;69.59;100548.09;4929375;28;20018;-96
2024/02/17 18:09:00;;;;;;;31.67;13.73;;;;;;;4.63;69.34;100533.50;4928866;28;20023;-96
2024/02/17 18:11:26;;;;;;;35.70;18.17;;;;;;;4.60;69.72;100541.06;4929622;28;20445;-96
2024/02/17 18:13:52;;;;;;;37.33;18.58;;;;;;;4.63;70.15;100544.16;4945537;28;20031;-96
2024/02/17 18:16:17;;;;;;;47.65;23.63;;;;;;;4.57;70.03;100547.63;4929662;28;20508;-96
2024/02/17 18:18:43;;;;;;;39.92;19.50;;;;;;;4.45;70.43;100530.56;4928608;28;20034;-96
2024/02/17 18:21:09;;;;;;;38.05;20.42;;;;;;;4.48;70.28;100543.47;4929131;28;20043;-95
2024/02/17 18:23:35;;;;;;;37.33;21.55;;;;;;;4.42;70.01;100536.28;4929350;28;20033;-95
2024/02/17 18:26:05;;;;;;;39.10;21.42;;;;;;;4.49;69.84;100544.31;4926929;28;20091;-96
2024/02/17 18:28:33;;;;;;;31.92;18.33;;;;;;;4.43;70.74;100545.94;4927931;28;20094;-95
2024/02/17 18:31:01;;;;;;;30.85;17.02;;;;;;;4.48;69.63;100546.13;4927691;28;20394;-96
2024/02/17 18:33:31;;;;;;;32.42;17.17;;;;;;;4.57;70.27;100555.63;4928397;28;20022;-96
2024/02/17 18:35:59;;;;;;;43.42;21.50;;;;;;;4.43;70.03;100543.25;4928393;28;20031;-95
2024/02/17 18:38:25;;;;;;;38.67;20.30;;;;;;;4.40;70.92;100554.31;4928781;28;20019;-96
2024/02/17 18:40:51;;;;;;;36.83;18.20;;;;;;;4.32;70.87;100555.31;4928711;28;20117;-96
2024/02/17 18:43:16;;;;;;;43.55;17.98;;;;;;;4.27;70.75;100551.59;4928351;28;20047;-95
2024/02/17 18:45:44;;;;;;;46.40;20.00;;;;;;;4.23;70.61;100560.00;4927396;28;20026;-95
2024/02/17 18:48:09;;;;;;;44.63;20.77;;;;;;;4.10;71.25;100556.44;4928041;28;20485;-95
2024/02/17 18:53:20;;;;;;;45.15;22.52;;;;;;;4.11;71.24;100571.38;4948364;28;20029;-96
2024/02/17 18:55:48;;;;;;;51.55;23.10;;;;;;;4.01;71.48;100561.09;4926935;28;20094;-96
2024/02/17 18:58:16;;;;;;;35.78;22.30;;;;;;;4.02;70.93;100560.06;4927385;28;20027;-96
2024/02/17 19:00:41;;;;;;;42.38;23.13;;;;;;;4.12;71.42;100581.06;4927283;28;20050;-96
2024/02/17 19:03:07;;;;;;;42.53;22.00;;;;;;;4.06;71.21;100566.66;4926436;28;20027;-96
2024/02/17 19:05:33;;;;;;;44.78;22.13;;;;;;;3.89;71.30;100562.66;4944364;28;20026;-96
2024/02/17 19:08:01;;;;;;;42.60;22.10;;;;;;;4.03;72.14;100585.72;4929102;28;20118;-96
2024/02/17 19:10:26;;;;;;;44.10;23.33;;;;;;;3.80;71.79;100554.00;4932908;28;20026;-96
2024/02/17 19:12:52;;;;;;;44.95;23.77;;;;;;;3.88;71.86;100585.84;4931450;28;20030;-96
2024/02/17 19:15:17;;;;;;;47.63;20.60;;;;;;;3.85;72.27;100572.88;4931209;28;20022;-95
2024/02/17 19:17:43;;;;;;;54.47;27.33;;;;;;;3.80;72.30;100568.16;4930967;28;20030;-96